sensor_id;sensor_type;location;lat;lon;timestamp;P1;durP1;ratioP1;P2;durP2;ratioP2
24567;SDS011;12731;52.182;8.716;2023-05-10T00:01:54;8.07;;;7.28;;
24567;SDS011;12731;52.182;8.716;2023-05-10T00:04:20;9.27;;;8.05;;
24567;SDS011;12731;52.182;8.716;2023-05-10T00:06:47;9.00;;;8.10;;
24567;SDS011;12731;52.182;8.716;2023-05-10T00:09:13;8.40;;;7.55;;
24567;SDS011;12731;52.182;8.716;2023-05-10T00:11:40;8.68;;;7.88;;
24567;SDS011;12731;52.182;8.716;2023-05-10T00:14:06;9.27;;;8.38;;
24567;SDS011;12731;52.182;8.716;2023-05-10T00:16:33;8.85;;;8.05;;
24567;SDS011;12731;52.182;8.716;2023-05-10T00:18:59;9.23;;;8.30;;
24567;SDS011;12731;52.182;8.716;2023-05-10T00:21:25;8.98;;;8.18;;
24567;SDS011;12731;52.182;8.716;2023-05-10T00:23:54;10.48;;;9.32;;
24567;SDS011;12731;52.182;8.716;2023-05-10T00:26:20;9.38;;;8.43;;
24567;SDS011;12731;52.182;8.716;2023-05-10T00:28:47;9.55;;;8.65;;
24567;SDS011;12731;52.182;8.716;2023-05-10T00:31:13;9.65;;;8.75;;
24567;SDS011;12731;52.182;8.716;2023-05-10T00:33:40;9.32;;;8.43;;
24567;SDS011;12731;52.182;8.716;2023-05-10T00:36:07;9.48;;;8.57;;
24567;SDS011;12731;52.182;8.716;2023-05-10T00:38:33;9.98;;;9.05;;
24567;SDS011;12731;52.182;8.716;2023-05-10T00:41:00;9.45;;;8.45;;
24567;SDS011;12731;52.182;8.716;2023-05-10T00:43:26;11.25;;;10.20;;
24567;SDS011;12731;52.182;8.716;2023-05-10T00:45:53;9.98;;;8.98;;
24567;SDS011;12731;52.182;8.716;2023-05-10T00:48:19;10.77;;;9.73;;
24567;SDS011;12731;52.182;8.716;2023-05-10T00:50:46;9.75;;;8.82;;
24567;SDS011;12731;52.182;8.716;2023-05-10T00:53:13;11.70;;;9.65;;
24567;SDS011;12731;52.182;8.716;2023-05-10T00:55:40;9.95;;;8.98;;
24567;SDS011;12731;52.182;8.716;2023-05-10T00:58:06;10.73;;;9.68;;
24567;SDS011;12731;52.182;8.716;2023-05-10T01:00:33;9.48;;;8.60;;
24567;SDS011;12731;52.182;8.716;2023-05-10T01:02:59;10.07;;;9.15;;
24567;SDS011;12731;52.182;8.716;2023-05-10T01:05:26;10.43;;;9.48;;
24567;SDS011;12731;52.182;8.716;2023-05-10T01:07:53;9.68;;;8.77;;
24567;SDS011;12731;52.182;8.716;2023-05-10T01:10:20;10.57;;;9.57;;
24567;SDS011;12731;52.182;8.716;2023-05-10T01:12:46;10.77;;;9.70;;
24567;SDS011;12731;52.182;8.716;2023-05-10T01:15:13;10.60;;;9.60;;
24567;SDS011;12731;52.182;8.716;2023-05-10T01:17:41;10.27;;;9.32;;
24567;SDS011;12731;52.182;8.716;2023-05-10T01:20:09;11.00;;;9.95;;
24567;SDS011;12731;52.182;8.716;2023-05-10T01:23:01;11.48;;;10.38;;
24567;SDS011;12731;52.182;8.716;2023-05-10T01:34:09;11.40;;;10.30;;
24567;SDS011;12731;52.182;8.716;2023-05-10T01:36:59;11.52;;;10.43;;
24567;SDS011;12731;52.182;8.716;2023-05-10T01:39:32;11.18;;;10.18;;
24567;SDS011;12731;52.182;8.716;2023-05-10T01:42:07;12.13;;;10.93;;
24567;SDS011;12731;52.182;8.716;2023-05-10T01:44:39;11.68;;;10.57;;
24567;SDS011;12731;52.182;8.716;2023-05-10T01:47:14;12.13;;;10.82;;
24567;SDS011;12731;52.182;8.716;2023-05-10T01:49:50;12.43;;;10.85;;
24567;SDS011;12731;52.182;8.716;2023-05-10T01:52:19;13.35;;;12.05;;
24567;SDS011;12731;52.182;8.716;2023-05-10T01:55:00;13.02;;;11.73;;
24567;SDS011;12731;52.182;8.716;2023-05-10T01:57:32;12.60;;;11.35;;
24567;SDS011;12731;52.182;8.716;2023-05-10T02:00:01;12.80;;;11.50;;
24567;SDS011;12731;52.182;8.716;2023-05-10T02:02:30;11.63;;;10.45;;
24567;SDS011;12731;52.182;8.716;2023-05-10T02:04:59;11.90;;;10.80;;
24567;SDS011;12731;52.182;8.716;2023-05-10T02:07:26;11.85;;;10.65;;
24567;SDS011;12731;52.182;8.716;2023-05-10T02:09:53;11.38;;;10.27;;
24567;SDS011;12731;52.182;8.716;2023-05-10T02:12:20;12.15;;;10.77;;
24567;SDS011;12731;52.182;8.716;2023-05-10T02:14:47;11.95;;;10.80;;
24567;SDS011;12731;52.182;8.716;2023-05-10T02:17:14;12.45;;;11.15;;
24567;SDS011;12731;52.182;8.716;2023-05-10T02:19:40;12.65;;;11.43;;
24567;SDS011;12731;52.182;8.716;2023-05-10T02:22:08;12.77;;;11.50;;
24567;SDS011;12731;52.182;8.716;2023-05-10T02:24:35;11.32;;;10.25;;
24567;SDS011;12731;52.182;8.716;2023-05-10T02:27:02;10.98;;;9.98;;
24567;SDS011;12731;52.182;8.716;2023-05-10T02:29:29;12.23;;;10.93;;
24567;SDS011;12731;52.182;8.716;2023-05-10T02:31:57;11.90;;;10.70;;
24567;SDS011;12731;52.182;8.716;2023-05-10T02:34:27;11.70;;;10.50;;
24567;SDS011;12731;52.182;8.716;2023-05-10T02:36:54;9.60;;;8.52;;
24567;SDS011;12731;52.182;8.716;2023-05-10T02:39:22;5.57;;;4.88;;
24567;SDS011;12731;52.182;8.716;2023-05-10T02:41:49;7.20;;;5.28;;
24567;SDS011;12731;52.182;8.716;2023-05-10T02:44:17;10.02;;;5.75;;
24567;SDS011;12731;52.182;8.716;2023-05-10T02:46:44;9.68;;;6.43;;
24567;SDS011;12731;52.182;8.716;2023-05-10T02:49:11;7.65;;;6.63;;
24567;SDS011;12731;52.182;8.716;2023-05-10T02:51:40;8.10;;;6.72;;
24567;SDS011;12731;52.182;8.716;2023-05-10T02:54:11;9.88;;;7.10;;
24567;SDS011;12731;52.182;8.716;2023-05-10T02:56:40;7.53;;;6.20;;
24567;SDS011;12731;52.182;8.716;2023-05-10T02:59:09;6.68;;;6.07;;
24567;SDS011;12731;52.182;8.716;2023-05-10T03:01:35;6.30;;;5.70;;
24567;SDS011;12731;52.182;8.716;2023-05-10T03:04:02;6.50;;;5.45;;
24567;SDS011;12731;52.182;8.716;2023-05-10T03:06:28;5.40;;;4.90;;
24567;SDS011;12731;52.182;8.716;2023-05-10T03:08:55;5.95;;;5.32;;
24567;SDS011;12731;52.182;8.716;2023-05-10T03:14:21;6.20;;;5.60;;
24567;SDS011;12731;52.182;8.716;2023-05-10T03:16:52;7.32;;;5.85;;
24567;SDS011;12731;52.182;8.716;2023-05-10T03:19:30;9.35;;;6.18;;
24567;SDS011;12731;52.182;8.716;2023-05-10T03:24:26;6.68;;;6.07;;
24567;SDS011;12731;52.182;8.716;2023-05-10T03:26:54;6.57;;;5.97;;
24567;SDS011;12731;52.182;8.716;2023-05-10T03:29:22;6.57;;;5.97;;
24567;SDS011;12731;52.182;8.716;2023-05-10T03:31:49;7.47;;;6.13;;
24567;SDS011;12731;52.182;8.716;2023-05-10T03:34:15;6.65;;;5.80;;
24567;SDS011;12731;52.182;8.716;2023-05-10T03:36:43;6.13;;;5.53;;
24567;SDS011;12731;52.182;8.716;2023-05-10T03:39:09;6.22;;;5.63;;
24567;SDS011;12731;52.182;8.716;2023-05-10T03:41:36;6.30;;;5.65;;
24567;SDS011;12731;52.182;8.716;2023-05-10T03:44:03;6.03;;;5.53;;
24567;SDS011;12731;52.182;8.716;2023-05-10T03:46:29;6.80;;;6.10;;
24567;SDS011;12731;52.182;8.716;2023-05-10T03:48:56;7.25;;;6.55;;
24567;SDS011;12731;52.182;8.716;2023-05-10T03:51:22;7.03;;;6.32;;
24567;SDS011;12731;52.182;8.716;2023-05-10T03:53:50;7.97;;;6.53;;
24567;SDS011;12731;52.182;8.716;2023-05-10T03:56:16;6.80;;;6.20;;
24567;SDS011;12731;52.182;8.716;2023-05-10T03:58:43;6.85;;;6.15;;
24567;SDS011;12731;52.182;8.716;2023-05-10T04:01:09;7.15;;;6.45;;
24567;SDS011;12731;52.182;8.716;2023-05-10T04:03:36;7.50;;;6.80;;
24567;SDS011;12731;52.182;8.716;2023-05-10T04:06:03;7.65;;;6.95;;
24567;SDS011;12731;52.182;8.716;2023-05-10T04:08:30;8.05;;;7.28;;
24567;SDS011;12731;52.182;8.716;2023-05-10T04:11:07;7.63;;;6.90;;
24567;SDS011;12731;52.182;8.716;2023-05-10T04:13:34;8.20;;;7.40;;
24567;SDS011;12731;52.182;8.716;2023-05-10T04:16:01;8.70;;;7.35;;
24567;SDS011;12731;52.182;8.716;2023-05-10T04:18:27;8.30;;;7.13;;
24567;SDS011;12731;52.182;8.716;2023-05-10T04:20:54;8.88;;;7.78;;
24567;SDS011;12731;52.182;8.716;2023-05-10T04:23:20;7.32;;;6.63;;
24567;SDS011;12731;52.182;8.716;2023-05-10T04:25:47;7.57;;;6.88;;
24567;SDS011;12731;52.182;8.716;2023-05-10T04:28:13;7.25;;;6.53;;
24567;SDS011;12731;52.182;8.716;2023-05-10T04:30:40;8.23;;;7.03;;
24567;SDS011;12731;52.182;8.716;2023-05-10T04:33:06;7.38;;;6.68;;
24567;SDS011;12731;52.182;8.716;2023-05-10T04:35:34;7.53;;;6.70;;
24567;SDS011;12731;52.182;8.716;2023-05-10T04:38:01;8.20;;;7.40;;
24567;SDS011;12731;52.182;8.716;2023-05-10T04:40:27;7.22;;;6.53;;
24567;SDS011;12731;52.182;8.716;2023-05-10T04:42:53;7.32;;;6.63;;
24567;SDS011;12731;52.182;8.716;2023-05-10T04:45:23;7.57;;;6.88;;
24567;SDS011;12731;52.182;8.716;2023-05-10T04:47:49;7.45;;;6.70;;
24567;SDS011;12731;52.182;8.716;2023-05-10T04:50:16;5.65;;;5.15;;
24567;SDS011;12731;52.182;8.716;2023-05-10T04:52:42;3.72;;;3.08;;
24567;SDS011;12731;52.182;8.716;2023-05-10T04:55:09;2.50;;;2.30;;
24567;SDS011;12731;52.182;8.716;2023-05-10T04:57:36;1.95;;;1.65;;
24567;SDS011;12731;52.182;8.716;2023-05-10T05:00:02;1.98;;;1.77;;
24567;SDS011;12731;52.182;8.716;2023-05-10T05:02:29;2.45;;;1.50;;
24567;SDS011;12731;52.182;8.716;2023-05-10T05:04:56;1.40;;;1.20;;
24567;SDS011;12731;52.182;8.716;2023-05-10T05:07:23;1.40;;;1.17;;
24567;SDS011;12731;52.182;8.716;2023-05-10T05:09:50;1.45;;;1.33;;
24567;SDS011;12731;52.182;8.716;2023-05-10T05:12:16;1.40;;;1.10;;
24567;SDS011;12731;52.182;8.716;2023-05-10T05:14:43;1.20;;;1.10;;
24567;SDS011;12731;52.182;8.716;2023-05-10T05:17:09;1.60;;;1.42;;
24567;SDS011;12731;52.182;8.716;2023-05-10T05:19:35;1.70;;;1.60;;
24567;SDS011;12731;52.182;8.716;2023-05-10T05:22:02;1.60;;;1.50;;
24567;SDS011;12731;52.182;8.716;2023-05-10T05:24:29;1.48;;;1.38;;
24567;SDS011;12731;52.182;8.716;2023-05-10T05:27:01;1.67;;;1.55;;
24567;SDS011;12731;52.182;8.716;2023-05-10T05:29:28;2.25;;;1.95;;
24567;SDS011;12731;52.182;8.716;2023-05-10T05:31:54;2.50;;;2.30;;
24567;SDS011;12731;52.182;8.716;2023-05-10T05:34:21;2.13;;;1.92;;
24567;SDS011;12731;52.182;8.716;2023-05-10T05:36:48;2.42;;;2.22;;
24567;SDS011;12731;52.182;8.716;2023-05-10T05:39:14;2.92;;;2.25;;
24567;SDS011;12731;52.182;8.716;2023-05-10T05:41:41;4.13;;;3.03;;
24567;SDS011;12731;52.182;8.716;2023-05-10T05:44:08;3.20;;;2.90;;
24567;SDS011;12731;52.182;8.716;2023-05-10T05:46:34;3.72;;;3.42;;
24567;SDS011;12731;52.182;8.716;2023-05-10T05:49:01;3.80;;;3.40;;
24567;SDS011;12731;52.182;8.716;2023-05-10T05:51:28;4.75;;;3.65;;
24567;SDS011;12731;52.182;8.716;2023-05-10T05:53:55;4.65;;;4.20;;
24567;SDS011;12731;52.182;8.716;2023-05-10T05:56:21;5.18;;;4.78;;
24567;SDS011;12731;52.182;8.716;2023-05-10T05:58:50;5.53;;;5.00;;
24567;SDS011;12731;52.182;8.716;2023-05-10T06:01:17;6.20;;;5.60;;
24567;SDS011;12731;52.182;8.716;2023-05-10T06:03:43;6.13;;;5.53;;
24567;SDS011;12731;52.182;8.716;2023-05-10T06:06:10;6.40;;;5.80;;
24567;SDS011;12731;52.182;8.716;2023-05-10T06:08:36;6.20;;;5.30;;
24567;SDS011;12731;52.182;8.716;2023-05-10T06:11:03;6.32;;;5.78;;
24567;SDS011;12731;52.182;8.716;2023-05-10T06:13:30;6.15;;;5.65;;
24567;SDS011;12731;52.182;8.716;2023-05-10T06:15:58;5.65;;;5.07;;
24567;SDS011;12731;52.182;8.716;2023-05-10T06:18:25;5.85;;;5.35;;
24567;SDS011;12731;52.182;8.716;2023-05-10T06:20:52;5.47;;;4.97;;
24567;SDS011;12731;52.182;8.716;2023-05-10T06:23:18;5.80;;;5.20;;
24567;SDS011;12731;52.182;8.716;2023-05-10T06:25:44;6.60;;;4.82;;
24567;SDS011;12731;52.182;8.716;2023-05-10T06:28:11;5.38;;;4.45;;
24567;SDS011;12731;52.182;8.716;2023-05-10T06:30:37;5.20;;;4.70;;
24567;SDS011;12731;52.182;8.716;2023-05-10T06:33:04;5.65;;;4.70;;
24567;SDS011;12731;52.182;8.716;2023-05-10T06:35:31;5.43;;;4.28;;
24567;SDS011;12731;52.182;8.716;2023-05-10T06:37:59;6.85;;;4.68;;
24567;SDS011;12731;52.182;8.716;2023-05-10T06:40:25;4.72;;;4.30;;
24567;SDS011;12731;52.182;8.716;2023-05-10T06:42:52;5.40;;;4.90;;
24567;SDS011;12731;52.182;8.716;2023-05-10T06:45:18;5.45;;;4.82;;
24567;SDS011;12731;52.182;8.716;2023-05-10T06:47:45;5.85;;;5.00;;
24567;SDS011;12731;52.182;8.716;2023-05-10T06:50:12;6.35;;;5.28;;
24567;SDS011;12731;52.182;8.716;2023-05-10T06:52:39;5.05;;;4.50;;
24567;SDS011;12731;52.182;8.716;2023-05-10T06:55:05;4.68;;;4.28;;
24567;SDS011;12731;52.182;8.716;2023-05-10T06:57:32;5.57;;;5.07;;
24567;SDS011;12731;52.182;8.716;2023-05-10T06:59:59;5.97;;;4.95;;
24567;SDS011;12731;52.182;8.716;2023-05-10T07:02:25;5.30;;;4.80;;
24567;SDS011;12731;52.182;8.716;2023-05-10T07:04:52;5.57;;;5.07;;
24567;SDS011;12731;52.182;8.716;2023-05-10T07:07:19;5.28;;;4.78;;
24567;SDS011;12731;52.182;8.716;2023-05-10T07:09:45;5.47;;;4.75;;
24567;SDS011;12731;52.182;8.716;2023-05-10T07:12:12;5.68;;;4.07;;
24567;SDS011;12731;52.182;8.716;2023-05-10T07:14:41;4.10;;;3.80;;
24567;SDS011;12731;52.182;8.716;2023-05-10T07:17:07;4.05;;;3.00;;
24567;SDS011;12731;52.182;8.716;2023-05-10T07:19:34;3.95;;;3.10;;
24567;SDS011;12731;52.182;8.716;2023-05-10T07:22:01;5.82;;;3.67;;
24567;SDS011;12731;52.182;8.716;2023-05-10T07:24:27;4.07;;;3.33;;
24567;SDS011;12731;52.182;8.716;2023-05-10T07:26:54;3.97;;;3.55;;
24567;SDS011;12731;52.182;8.716;2023-05-10T07:29:20;5.18;;;3.50;;
24567;SDS011;12731;52.182;8.716;2023-05-10T07:31:47;5.25;;;3.78;;
24567;SDS011;12731;52.182;8.716;2023-05-10T07:34:13;5.65;;;3.50;;
24567;SDS011;12731;52.182;8.716;2023-05-10T07:36:40;4.00;;;3.33;;
24567;SDS011;12731;52.182;8.716;2023-05-10T07:39:06;4.47;;;3.45;;
24567;SDS011;12731;52.182;8.716;2023-05-10T07:41:33;5.30;;;3.13;;
24567;SDS011;12731;52.182;8.716;2023-05-10T07:44:01;4.03;;;3.63;;
24567;SDS011;12731;52.182;8.716;2023-05-10T07:46:27;4.57;;;3.72;;
24567;SDS011;12731;52.182;8.716;2023-05-10T07:48:54;5.78;;;3.60;;
24567;SDS011;12731;52.182;8.716;2023-05-10T07:51:21;3.88;;;3.50;;
24567;SDS011;12731;52.182;8.716;2023-05-10T07:53:47;5.10;;;3.53;;
24567;SDS011;12731;52.182;8.716;2023-05-10T07:56:24;5.40;;;4.28;;
24567;SDS011;12731;52.182;8.716;2023-05-10T07:58:53;6.45;;;4.13;;
24567;SDS011;12731;52.182;8.716;2023-05-10T08:01:20;5.82;;;4.32;;
24567;SDS011;12731;52.182;8.716;2023-05-10T08:03:47;5.40;;;4.32;;
24567;SDS011;12731;52.182;8.716;2023-05-10T08:06:14;5.20;;;4.10;;
24567;SDS011;12731;52.182;8.716;2023-05-10T08:08:41;4.53;;;4.13;;
24567;SDS011;12731;52.182;8.716;2023-05-10T08:11:08;6.20;;;4.20;;
24567;SDS011;12731;52.182;8.716;2023-05-10T08:13:34;6.10;;;4.72;;
24567;SDS011;12731;52.182;8.716;2023-05-10T08:16:00;6.55;;;4.38;;
24567;SDS011;12731;52.182;8.716;2023-05-10T08:18:27;9.25;;;4.75;;
24567;SDS011;12731;52.182;8.716;2023-05-10T08:20:54;8.75;;;5.50;;
24567;SDS011;12731;52.182;8.716;2023-05-10T08:23:20;7.53;;;5.45;;
24567;SDS011;12731;52.182;8.716;2023-05-10T08:25:47;7.03;;;5.20;;
24567;SDS011;12731;52.182;8.716;2023-05-10T08:28:13;9.95;;;5.82;;
24567;SDS011;12731;52.182;8.716;2023-05-10T08:30:40;7.85;;;5.88;;
24567;SDS011;12731;52.182;8.716;2023-05-10T08:33:06;8.95;;;6.30;;
24567;SDS011;12731;52.182;8.716;2023-05-10T08:35:32;7.75;;;6.03;;
24567;SDS011;12731;52.182;8.716;2023-05-10T08:38:00;9.88;;;7.43;;
24567;SDS011;12731;52.182;8.716;2023-05-10T08:40:27;7.88;;;6.28;;
24567;SDS011;12731;52.182;8.716;2023-05-10T08:42:58;10.52;;;7.47;;
24567;SDS011;12731;52.182;8.716;2023-05-10T08:45:32;10.27;;;7.75;;
24567;SDS011;12731;52.182;8.716;2023-05-10T08:48:01;10.23;;;7.85;;
24567;SDS011;12731;52.182;8.716;2023-05-10T08:50:27;10.68;;;7.50;;
24567;SDS011;12731;52.182;8.716;2023-05-10T08:52:56;9.40;;;7.55;;
24567;SDS011;12731;52.182;8.716;2023-05-10T08:55:24;9.68;;;7.82;;
24567;SDS011;12731;52.182;8.716;2023-05-10T08:57:50;12.05;;;8.23;;
24567;SDS011;12731;52.182;8.716;2023-05-10T09:00:17;9.57;;;8.23;;
24567;SDS011;12731;52.182;8.716;2023-05-10T09:02:44;11.25;;;8.95;;
24567;SDS011;12731;52.182;8.716;2023-05-10T09:05:12;10.93;;;8.57;;
24567;SDS011;12731;52.182;8.716;2023-05-10T09:07:38;11.43;;;8.82;;
24567;SDS011;12731;52.182;8.716;2023-05-10T09:10:05;11.57;;;8.25;;
24567;SDS011;12731;52.182;8.716;2023-05-10T09:12:32;12.50;;;9.55;;
24567;SDS011;12731;52.182;8.716;2023-05-10T09:14:59;13.93;;;9.68;;
24567;SDS011;12731;52.182;8.716;2023-05-10T09:17:26;12.93;;;10.20;;
24567;SDS011;12731;52.182;8.716;2023-05-10T09:20:00;14.48;;;10.32;;
24567;SDS011;12731;52.182;8.716;2023-05-10T09:22:29;14.88;;;11.20;;
24567;SDS011;12731;52.182;8.716;2023-05-10T09:25:03;16.00;;;10.90;;
24567;SDS011;12731;52.182;8.716;2023-05-10T09:27:40;14.98;;;10.73;;
24567;SDS011;12731;52.182;8.716;2023-05-10T09:30:07;13.27;;;10.98;;
24567;SDS011;12731;52.182;8.716;2023-05-10T09:32:41;14.73;;;11.23;;
24567;SDS011;12731;52.182;8.716;2023-05-10T09:37:42;14.38;;;11.98;;
24567;SDS011;12731;52.182;8.716;2023-05-10T09:40:13;14.98;;;10.85;;
24567;SDS011;12731;52.182;8.716;2023-05-10T09:42:51;16.48;;;11.20;;
24567;SDS011;12731;52.182;8.716;2023-05-10T09:45:30;14.85;;;10.88;;
24567;SDS011;12731;52.182;8.716;2023-05-10T09:47:58;14.13;;;10.50;;
24567;SDS011;12731;52.182;8.716;2023-05-10T09:50:26;15.13;;;10.60;;
24567;SDS011;12731;52.182;8.716;2023-05-10T09:55:39;13.63;;;10.50;;
24567;SDS011;12731;52.182;8.716;2023-05-10T09:58:07;11.55;;;10.25;;
24567;SDS011;12731;52.182;8.716;2023-05-10T10:00:41;10.73;;;8.77;;
24567;SDS011;12731;52.182;8.716;2023-05-10T10:03:14;10.80;;;8.35;;
24567;SDS011;12731;52.182;8.716;2023-05-10T10:05:41;8.15;;;7.07;;
24567;SDS011;12731;52.182;8.716;2023-05-10T10:08:09;9.00;;;7.93;;
24567;SDS011;12731;52.182;8.716;2023-05-10T10:10:36;8.73;;;7.45;;
24567;SDS011;12731;52.182;8.716;2023-05-10T10:13:02;12.77;;;8.27;;
24567;SDS011;12731;52.182;8.716;2023-05-10T10:15:29;9.27;;;8.13;;
24567;SDS011;12731;52.182;8.716;2023-05-10T10:17:55;11.13;;;8.27;;
24567;SDS011;12731;52.182;8.716;2023-05-10T10:20:22;11.50;;;9.18;;
24567;SDS011;12731;52.182;8.716;2023-05-10T10:22:49;12.32;;;9.57;;
24567;SDS011;12731;52.182;8.716;2023-05-10T10:25:16;12.35;;;9.75;;
24567;SDS011;12731;52.182;8.716;2023-05-10T10:35:58;11.95;;;9.05;;
24567;SDS011;12731;52.182;8.716;2023-05-10T10:38:25;11.90;;;10.20;;
24567;SDS011;12731;52.182;8.716;2023-05-10T10:41:01;9.48;;;7.80;;
24567;SDS011;12731;52.182;8.716;2023-05-10T10:43:28;9.40;;;7.55;;
24567;SDS011;12731;52.182;8.716;2023-05-10T10:46:14;10.15;;;7.43;;
24567;SDS011;12731;52.182;8.716;2023-05-10T10:48:50;12.73;;;8.18;;
24567;SDS011;12731;52.182;8.716;2023-05-10T10:51:37;9.48;;;7.80;;
24567;SDS011;12731;52.182;8.716;2023-05-10T10:54:10;11.07;;;8.18;;
24567;SDS011;12731;52.182;8.716;2023-05-10T10:56:37;11.10;;;8.60;;
24567;SDS011;12731;52.182;8.716;2023-05-10T10:59:04;12.55;;;7.60;;
24567;SDS011;12731;52.182;8.716;2023-05-10T11:01:33;9.68;;;6.97;;
24567;SDS011;12731;52.182;8.716;2023-05-10T11:06:31;9.45;;;7.15;;
24567;SDS011;12731;52.182;8.716;2023-05-10T11:08:58;9.65;;;6.78;;
24567;SDS011;12731;52.182;8.716;2023-05-10T11:11:25;7.55;;;6.00;;
24567;SDS011;12731;52.182;8.716;2023-05-10T11:13:52;10.05;;;6.07;;
24567;SDS011;12731;52.182;8.716;2023-05-10T11:16:19;7.18;;;5.60;;
24567;SDS011;12731;52.182;8.716;2023-05-10T11:18:53;5.38;;;4.15;;
24567;SDS011;12731;52.182;8.716;2023-05-10T11:21:22;4.53;;;4.10;;
24567;SDS011;12731;52.182;8.716;2023-05-10T11:23:50;4.93;;;3.72;;
24567;SDS011;12731;52.182;8.716;2023-05-10T11:26:29;6.70;;;3.90;;
24567;SDS011;12731;52.182;8.716;2023-05-10T11:28:57;5.53;;;3.60;;
24567;SDS011;12731;52.182;8.716;2023-05-10T11:31:25;4.60;;;3.95;;
24567;SDS011;12731;52.182;8.716;2023-05-10T11:33:54;5.68;;;3.95;;
24567;SDS011;12731;52.182;8.716;2023-05-10T11:36:23;5.10;;;3.80;;
24567;SDS011;12731;52.182;8.716;2023-05-10T11:38:51;7.10;;;3.67;;
24567;SDS011;12731;52.182;8.716;2023-05-10T11:41:18;6.00;;;4.53;;
24567;SDS011;12731;52.182;8.716;2023-05-10T11:43:49;5.78;;;4.82;;
24567;SDS011;12731;52.182;8.716;2023-05-10T11:46:17;6.78;;;4.43;;
24567;SDS011;12731;52.182;8.716;2023-05-10T11:48:46;7.35;;;5.50;;
24567;SDS011;12731;52.182;8.716;2023-05-10T11:51:14;6.65;;;5.43;;
24567;SDS011;12731;52.182;8.716;2023-05-10T11:53:41;7.38;;;4.78;;
24567;SDS011;12731;52.182;8.716;2023-05-10T11:56:09;8.00;;;5.35;;
24567;SDS011;12731;52.182;8.716;2023-05-10T11:58:37;8.88;;;5.63;;
24567;SDS011;12731;52.182;8.716;2023-05-10T12:01:04;7.93;;;5.15;;
24567;SDS011;12731;52.182;8.716;2023-05-10T12:03:32;8.93;;;5.32;;
24567;SDS011;12731;52.182;8.716;2023-05-10T12:05:59;8.23;;;5.70;;
24567;SDS011;12731;52.182;8.716;2023-05-10T12:08:27;8.38;;;6.03;;
24567;SDS011;12731;52.182;8.716;2023-05-10T12:11:04;8.27;;;5.95;;
24567;SDS011;12731;52.182;8.716;2023-05-10T12:13:38;8.05;;;6.30;;
24567;SDS011;12731;52.182;8.716;2023-05-10T12:16:18;7.80;;;6.47;;
24567;SDS011;12731;52.182;8.716;2023-05-10T12:18:48;7.70;;;6.20;;
24567;SDS011;12731;52.182;8.716;2023-05-10T12:21:15;8.52;;;6.20;;
24567;SDS011;12731;52.182;8.716;2023-05-10T12:23:41;7.85;;;5.97;;
24567;SDS011;12731;52.182;8.716;2023-05-10T12:26:09;7.40;;;5.25;;
24567;SDS011;12731;52.182;8.716;2023-05-10T12:28:36;8.43;;;4.85;;
24567;SDS011;12731;52.182;8.716;2023-05-10T12:31:03;7.18;;;4.85;;
24567;SDS011;12731;52.182;8.716;2023-05-10T12:36:12;8.95;;;5.72;;
24567;SDS011;12731;52.182;8.716;2023-05-10T12:38:40;7.55;;;4.63;;
24567;SDS011;12731;52.182;8.716;2023-05-10T12:41:10;7.32;;;5.32;;
24567;SDS011;12731;52.182;8.716;2023-05-10T12:43:37;6.32;;;5.32;;
24567;SDS011;12731;52.182;8.716;2023-05-10T12:46:08;8.07;;;5.82;;
24567;SDS011;12731;52.182;8.716;2023-05-10T12:48:36;8.35;;;6.22;;
24567;SDS011;12731;52.182;8.716;2023-05-10T12:51:04;7.53;;;5.85;;
24567;SDS011;12731;52.182;8.716;2023-05-10T12:53:31;8.75;;;6.82;;
24567;SDS011;12731;52.182;8.716;2023-05-10T12:55:57;8.80;;;6.65;;
24567;SDS011;12731;52.182;8.716;2023-05-10T12:58:24;9.70;;;7.05;;
24567;SDS011;12731;52.182;8.716;2023-05-10T13:01:00;8.18;;;6.75;;
24567;SDS011;12731;52.182;8.716;2023-05-10T13:03:27;6.53;;;5.43;;
24567;SDS011;12731;52.182;8.716;2023-05-10T13:05:53;8.80;;;6.38;;
24567;SDS011;12731;52.182;8.716;2023-05-10T13:08:20;8.10;;;5.80;;
24567;SDS011;12731;52.182;8.716;2023-05-10T13:10:46;9.52;;;6.50;;
24567;SDS011;12731;52.182;8.716;2023-05-10T13:13:12;8.75;;;6.43;;
24567;SDS011;12731;52.182;8.716;2023-05-10T13:15:39;8.27;;;6.47;;
24567;SDS011;12731;52.182;8.716;2023-05-10T13:18:05;7.28;;;5.47;;
24567;SDS011;12731;52.182;8.716;2023-05-10T13:20:32;8.43;;;5.38;;
24567;SDS011;12731;52.182;8.716;2023-05-10T13:22:58;9.38;;;6.00;;
24567;SDS011;12731;52.182;8.716;2023-05-10T13:25:25;8.27;;;5.57;;
24567;SDS011;12731;52.182;8.716;2023-05-10T13:27:52;10.88;;;5.30;;
24567;SDS011;12731;52.182;8.716;2023-05-10T13:30:18;7.25;;;6.18;;
24567;SDS011;12731;52.182;8.716;2023-05-10T13:32:44;7.63;;;6.03;;
24567;SDS011;12731;52.182;8.716;2023-05-10T13:35:11;10.43;;;5.95;;
24567;SDS011;12731;52.182;8.716;2023-05-10T13:37:38;9.65;;;5.60;;
24567;SDS011;12731;52.182;8.716;2023-05-10T13:40:04;6.95;;;5.22;;
24567;SDS011;12731;52.182;8.716;2023-05-10T13:42:32;8.20;;;6.00;;
24567;SDS011;12731;52.182;8.716;2023-05-10T13:44:59;7.85;;;5.43;;
24567;SDS011;12731;52.182;8.716;2023-05-10T13:47:27;7.30;;;5.65;;
24567;SDS011;12731;52.182;8.716;2023-05-10T13:49:54;12.27;;;6.32;;
24567;SDS011;12731;52.182;8.716;2023-05-10T13:52:21;8.73;;;6.57;;
24567;SDS011;12731;52.182;8.716;2023-05-10T13:54:47;9.02;;;6.47;;
24567;SDS011;12731;52.182;8.716;2023-05-10T13:57:14;7.93;;;5.78;;
24567;SDS011;12731;52.182;8.716;2023-05-10T13:59:42;8.65;;;6.55;;
24567;SDS011;12731;52.182;8.716;2023-05-10T14:02:09;6.00;;;5.22;;
24567;SDS011;12731;52.182;8.716;2023-05-10T14:04:35;8.45;;;5.60;;
24567;SDS011;12731;52.182;8.716;2023-05-10T14:07:02;7.20;;;6.03;;
24567;SDS011;12731;52.182;8.716;2023-05-10T14:09:28;7.95;;;5.82;;
24567;SDS011;12731;52.182;8.716;2023-05-10T14:11:54;11.82;;;7.05;;
24567;SDS011;12731;52.182;8.716;2023-05-10T14:14:21;10.25;;;6.78;;
24567;SDS011;12731;52.182;8.716;2023-05-10T14:16:48;17.15;;;9.23;;
24567;SDS011;12731;52.182;8.716;2023-05-10T14:19:15;15.60;;;8.23;;
24567;SDS011;12731;52.182;8.716;2023-05-10T14:21:41;18.50;;;9.55;;
24567;SDS011;12731;52.182;8.716;2023-05-10T14:24:08;20.30;;;10.18;;
24567;SDS011;12731;52.182;8.716;2023-05-10T14:26:34;21.25;;;12.35;;
24567;SDS011;12731;52.182;8.716;2023-05-10T14:29:01;17.58;;;11.45;;
24567;SDS011;12731;52.182;8.716;2023-05-10T14:31:27;16.08;;;10.98;;
24567;SDS011;12731;52.182;8.716;2023-05-10T14:33:56;14.02;;;10.70;;
24567;SDS011;12731;52.182;8.716;2023-05-10T14:36:23;14.57;;;11.05;;
24567;SDS011;12731;52.182;8.716;2023-05-10T14:38:50;14.43;;;11.43;;
24567;SDS011;12731;52.182;8.716;2023-05-10T14:41:17;14.60;;;11.02;;
24567;SDS011;12731;52.182;8.716;2023-05-10T14:43:43;13.43;;;11.57;;
24567;SDS011;12731;52.182;8.716;2023-05-10T14:46:10;21.00;;;11.65;;
24567;SDS011;12731;52.182;8.716;2023-05-10T14:48:37;13.80;;;10.90;;
24567;SDS011;12731;52.182;8.716;2023-05-10T14:51:03;14.73;;;10.65;;
24567;SDS011;12731;52.182;8.716;2023-05-10T14:53:30;13.13;;;10.52;;
24567;SDS011;12731;52.182;8.716;2023-05-10T14:55:56;15.27;;;10.35;;
24567;SDS011;12731;52.182;8.716;2023-05-10T14:58:23;14.68;;;11.07;;
24567;SDS011;12731;52.182;8.716;2023-05-10T15:00:50;14.15;;;9.55;;
24567;SDS011;12731;52.182;8.716;2023-05-10T15:03:17;12.32;;;10.90;;
24567;SDS011;12731;52.182;8.716;2023-05-10T15:05:44;16.75;;;12.43;;
24567;SDS011;12731;52.182;8.716;2023-05-10T15:08:11;16.75;;;12.30;;
24567;SDS011;12731;52.182;8.716;2023-05-10T15:10:39;19.85;;;13.15;;
24567;SDS011;12731;52.182;8.716;2023-05-10T15:13:05;18.52;;;13.15;;
24567;SDS011;12731;52.182;8.716;2023-05-10T15:15:32;21.00;;;13.30;;
24567;SDS011;12731;52.182;8.716;2023-05-10T15:17:58;18.35;;;14.35;;